sensor_id;sensor_type;location;lat;lon;timestamp;P1;durP1;ratioP1;P2;durP2;ratioP2
21315;SDS011;10817;55.820;13.030;2023-08-08T00:01:49;10.18;;;1.42;;
21315;SDS011;10817;55.820;13.030;2023-08-08T00:04:16;11.05;;;2.15;;
21315;SDS011;10817;55.820;13.030;2023-08-08T00:06:43;14.88;;;2.17;;
21315;SDS011;10817;55.820;13.030;2023-08-08T00:09:10;11.32;;;2.22;;
21315;SDS011;10817;55.820;13.030;2023-08-08T00:11:38;11.32;;;2.17;;
21315;SDS011;10817;55.820;13.030;2023-08-08T00:14:07;17.73;;;2.50;;
21315;SDS011;10817;55.820;13.030;2023-08-08T00:16:34;10.00;;;1.77;;
21315;SDS011;10817;55.820;13.030;2023-08-08T00:19:01;8.57;;;1.83;;
21315;SDS011;10817;55.820;13.030;2023-08-08T00:21:28;11.70;;;1.73;;
21315;SDS011;10817;55.820;13.030;2023-08-08T00:23:55;6.38;;;1.50;;
21315;SDS011;10817;55.820;13.030;2023-08-08T00:26:23;10.82;;;1.63;;
21315;SDS011;10817;55.820;13.030;2023-08-08T00:28:50;8.07;;;1.75;;
21315;SDS011;10817;55.820;13.030;2023-08-08T00:31:19;8.50;;;1.80;;
21315;SDS011;10817;55.820;13.030;2023-08-08T00:33:46;19.13;;;2.90;;
21315;SDS011;10817;55.820;13.030;2023-08-08T00:36:13;8.40;;;1.60;;
21315;SDS011;10817;55.820;13.030;2023-08-08T00:38:40;8.77;;;1.70;;
21315;SDS011;10817;55.820;13.030;2023-08-08T00:41:08;9.88;;;1.75;;
21315;SDS011;10817;55.820;13.030;2023-08-08T00:43:35;8.95;;;1.70;;
21315;SDS011;10817;55.820;13.030;2023-08-08T00:46:02;6.40;;;1.85;;
21315;SDS011;10817;55.820;13.030;2023-08-08T00:48:30;10.98;;;2.35;;
21315;SDS011;10817;55.820;13.030;2023-08-08T00:50:58;17.63;;;2.10;;
21315;SDS011;10817;55.820;13.030;2023-08-08T00:53:26;10.73;;;1.95;;
21315;SDS011;10817;55.820;13.030;2023-08-08T00:55:58;9.20;;;2.03;;
21315;SDS011;10817;55.820;13.030;2023-08-08T00:58:25;8.32;;;1.92;;
21315;SDS011;10817;55.820;13.030;2023-08-08T01:00:54;9.70;;;1.50;;
21315;SDS011;10817;55.820;13.030;2023-08-08T01:03:24;11.45;;;2.15;;
21315;SDS011;10817;55.820;13.030;2023-08-08T01:05:55;6.63;;;1.52;;
21315;SDS011;10817;55.820;13.030;2023-08-08T01:08:27;10.73;;;2.15;;
21315;SDS011;10817;55.820;13.030;2023-08-08T01:10:57;6.88;;;1.67;;
21315;SDS011;10817;55.820;13.030;2023-08-08T01:13:24;12.82;;;2.10;;
21315;SDS011;10817;55.820;13.030;2023-08-08T01:15:52;11.82;;;2.03;;
21315;SDS011;10817;55.820;13.030;2023-08-08T01:18:21;12.38;;;2.17;;
21315;SDS011;10817;55.820;13.030;2023-08-08T01:20:48;8.93;;;2.05;;
21315;SDS011;10817;55.820;13.030;2023-08-08T01:23:19;10.77;;;2.10;;
21315;SDS011;10817;55.820;13.030;2023-08-08T01:25:51;15.13;;;2.53;;
21315;SDS011;10817;55.820;13.030;2023-08-08T01:28:20;10.07;;;1.90;;
21315;SDS011;10817;55.820;13.030;2023-08-08T01:30:47;11.25;;;1.85;;
21315;SDS011;10817;55.820;13.030;2023-08-08T01:33:14;9.30;;;1.90;;
21315;SDS011;10817;55.820;13.030;2023-08-08T01:35:43;12.07;;;1.90;;
21315;SDS011;10817;55.820;13.030;2023-08-08T01:38:13;11.73;;;1.98;;
21315;SDS011;10817;55.820;13.030;2023-08-08T01:40:44;9.35;;;2.35;;
21315;SDS011;10817;55.820;13.030;2023-08-08T01:43:15;12.52;;;2.78;;
21315;SDS011;10817;55.820;13.030;2023-08-08T01:45:43;8.48;;;1.98;;
21315;SDS011;10817;55.820;13.030;2023-08-08T01:48:11;20.98;;;3.15;;
21315;SDS011;10817;55.820;13.030;2023-08-08T01:50:38;24.25;;;2.85;;
21315;SDS011;10817;55.820;13.030;2023-08-08T01:53:05;12.18;;;1.98;;
21315;SDS011;10817;55.820;13.030;2023-08-08T01:55:33;12.20;;;2.20;;
21315;SDS011;10817;55.820;13.030;2023-08-08T01:58:00;11.05;;;1.98;;
21315;SDS011;10817;55.820;13.030;2023-08-08T02:00:29;13.65;;;2.33;;
21315;SDS011;10817;55.820;13.030;2023-08-08T02:02:56;21.38;;;2.88;;
21315;SDS011;10817;55.820;13.030;2023-08-08T02:05:23;15.30;;;2.83;;
21315;SDS011;10817;55.820;13.030;2023-08-08T02:07:50;11.25;;;2.65;;
21315;SDS011;10817;55.820;13.030;2023-08-08T02:10:17;12.77;;;2.00;;
21315;SDS011;10817;55.820;13.030;2023-08-08T02:12:45;12.30;;;2.17;;
21315;SDS011;10817;55.820;13.030;2023-08-08T02:15:12;14.77;;;2.47;;
21315;SDS011;10817;55.820;13.030;2023-08-08T02:17:41;16.90;;;2.40;;
21315;SDS011;10817;55.820;13.030;2023-08-08T02:20:10;10.65;;;2.08;;
21315;SDS011;10817;55.820;13.030;2023-08-08T02:22:37;12.27;;;1.80;;
21315;SDS011;10817;55.820;13.030;2023-08-08T02:25:05;11.32;;;2.15;;
21315;SDS011;10817;55.820;13.030;2023-08-08T02:27:32;11.90;;;2.40;;
21315;SDS011;10817;55.820;13.030;2023-08-08T02:29:59;9.27;;;2.08;;
21315;SDS011;10817;55.820;13.030;2023-08-08T02:32:26;13.88;;;2.13;;
21315;SDS011;10817;55.820;13.030;2023-08-08T02:34:55;14.50;;;2.00;;
21315;SDS011;10817;55.820;13.030;2023-08-08T02:37:23;11.88;;;2.30;;
21315;SDS011;10817;55.820;13.030;2023-08-08T02:39:50;14.10;;;2.35;;
21315;SDS011;10817;55.820;13.030;2023-08-08T02:42:19;11.55;;;1.88;;
21315;SDS011;10817;55.820;13.030;2023-08-08T02:44:46;15.27;;;2.67;;
21315;SDS011;10817;55.820;13.030;2023-08-08T02:47:13;11.80;;;1.95;;
21315;SDS011;10817;55.820;13.030;2023-08-08T02:49:40;10.57;;;2.30;;
21315;SDS011;10817;55.820;13.030;2023-08-08T02:52:09;12.32;;;2.65;;
21315;SDS011;10817;55.820;13.030;2023-08-08T02:54:36;17.95;;;3.00;;
21315;SDS011;10817;55.820;13.030;2023-08-08T02:57:04;11.43;;;2.00;;
21315;SDS011;10817;55.820;13.030;2023-08-08T02:59:31;10.00;;;2.50;;
21315;SDS011;10817;55.820;13.030;2023-08-08T03:02:02;12.63;;;2.00;;
21315;SDS011;10817;55.820;13.030;2023-08-08T03:04:32;13.85;;;2.38;;
21315;SDS011;10817;55.820;13.030;2023-08-08T03:06:59;9.18;;;2.13;;
21315;SDS011;10817;55.820;13.030;2023-08-08T03:09:31;13.23;;;2.72;;
21315;SDS011;10817;55.820;13.030;2023-08-08T03:11:58;11.75;;;2.92;;
21315;SDS011;10817;55.820;13.030;2023-08-08T03:14:25;21.77;;;3.10;;
21315;SDS011;10817;55.820;13.030;2023-08-08T03:16:53;11.20;;;2.60;;
21315;SDS011;10817;55.820;13.030;2023-08-08T03:19:21;18.27;;;3.13;;
21315;SDS011;10817;55.820;13.030;2023-08-08T03:21:48;17.00;;;2.67;;
21315;SDS011;10817;55.820;13.030;2023-08-08T03:24:16;20.77;;;2.67;;
21315;SDS011;10817;55.820;13.030;2023-08-08T03:26:45;10.98;;;2.80;;
21315;SDS011;10817;55.820;13.030;2023-08-08T03:29:12;14.35;;;2.72;;
21315;SDS011;10817;55.820;13.030;2023-08-08T03:31:44;9.57;;;2.35;;
21315;SDS011;10817;55.820;13.030;2023-08-08T03:34:11;12.30;;;2.30;;
21315;SDS011;10817;55.820;13.030;2023-08-08T03:36:40;11.75;;;2.22;;
21315;SDS011;10817;55.820;13.030;2023-08-08T03:39:08;17.70;;;2.90;;
21315;SDS011;10817;55.820;13.030;2023-08-08T03:41:35;20.30;;;2.92;;
21315;SDS011;10817;55.820;13.030;2023-08-08T03:44:04;21.55;;;3.40;;
21315;SDS011;10817;55.820;13.030;2023-08-08T03:46:31;18.98;;;2.58;;
21315;SDS011;10817;55.820;13.030;2023-08-08T03:48:59;10.45;;;2.33;;
21315;SDS011;10817;55.820;13.030;2023-08-08T03:51:26;18.00;;;3.30;;
21315;SDS011;10817;55.820;13.030;2023-08-08T03:53:54;16.25;;;3.03;;
21315;SDS011;10817;55.820;13.030;2023-08-08T03:56:21;17.48;;;3.28;;
21315;SDS011;10817;55.820;13.030;2023-08-08T03:58:49;14.32;;;3.25;;
21315;SDS011;10817;55.820;13.030;2023-08-08T04:01:17;17.45;;;2.90;;
21315;SDS011;10817;55.820;13.030;2023-08-08T04:03:44;15.02;;;3.35;;
21315;SDS011;10817;55.820;13.030;2023-08-08T04:06:11;19.35;;;3.00;;
21315;SDS011;10817;55.820;13.030;2023-08-08T04:08:39;11.65;;;2.72;;
21315;SDS011;10817;55.820;13.030;2023-08-08T04:11:07;20.27;;;3.63;;
21315;SDS011;10817;55.820;13.030;2023-08-08T04:13:34;19.27;;;3.17;;
21315;SDS011;10817;55.820;13.030;2023-08-08T04:16:02;15.52;;;2.75;;
21315;SDS011;10817;55.820;13.030;2023-08-08T04:18:30;14.27;;;2.55;;
21315;SDS011;10817;55.820;13.030;2023-08-08T04:20:57;19.15;;;3.17;;
21315;SDS011;10817;55.820;13.030;2023-08-08T04:23:24;13.20;;;3.00;;
21315;SDS011;10817;55.820;13.030;2023-08-08T04:25:52;21.48;;;3.28;;
21315;SDS011;10817;55.820;13.030;2023-08-08T04:28:19;14.13;;;2.75;;
21315;SDS011;10817;55.820;13.030;2023-08-08T04:30:46;19.17;;;2.95;;
21315;SDS011;10817;55.820;13.030;2023-08-08T04:33:13;12.35;;;2.67;;
21315;SDS011;10817;55.820;13.030;2023-08-08T04:35:41;18.90;;;2.97;;
21315;SDS011;10817;55.820;13.030;2023-08-08T04:38:09;19.70;;;3.58;;
21315;SDS011;10817;55.820;13.030;2023-08-08T04:40:36;22.17;;;4.05;;
21315;SDS011;10817;55.820;13.030;2023-08-08T04:43:03;16.02;;;3.13;;
21315;SDS011;10817;55.820;13.030;2023-08-08T04:45:31;20.48;;;3.65;;
21315;SDS011;10817;55.820;13.030;2023-08-08T04:47:59;21.85;;;2.58;;
21315;SDS011;10817;55.820;13.030;2023-08-08T04:50:26;14.35;;;2.40;;
21315;SDS011;10817;55.820;13.030;2023-08-08T04:52:55;15.73;;;2.40;;
21315;SDS011;10817;55.820;13.030;2023-08-08T04:55:22;20.50;;;3.10;;
21315;SDS011;10817;55.820;13.030;2023-08-08T04:57:49;18.75;;;3.28;;
21315;SDS011;10817;55.820;13.030;2023-08-08T05:00:16;17.63;;;2.88;;
21315;SDS011;10817;55.820;13.030;2023-08-08T05:02:44;16.77;;;3.20;;
21315;SDS011;10817;55.820;13.030;2023-08-08T05:05:11;21.10;;;2.70;;
21315;SDS011;10817;55.820;13.030;2023-08-08T05:07:38;18.58;;;3.58;;
21315;SDS011;10817;55.820;13.030;2023-08-08T05:10:07;13.20;;;2.95;;
21315;SDS011;10817;55.820;13.030;2023-08-08T05:12:34;16.25;;;3.08;;
21315;SDS011;10817;55.820;13.030;2023-08-08T05:15:02;13.25;;;2.85;;
21315;SDS011;10817;55.820;13.030;2023-08-08T05:17:29;15.80;;;2.90;;
21315;SDS011;10817;55.820;13.030;2023-08-08T05:19:57;18.77;;;2.97;;
21315;SDS011;10817;55.820;13.030;2023-08-08T05:22:24;9.38;;;2.78;;
21315;SDS011;10817;55.820;13.030;2023-08-08T05:24:51;12.23;;;2.47;;
21315;SDS011;10817;55.820;13.030;2023-08-08T05:27:20;22.13;;;2.88;;
21315;SDS011;10817;55.820;13.030;2023-08-08T05:29:47;13.48;;;2.55;;
21315;SDS011;10817;55.820;13.030;2023-08-08T05:32:14;13.73;;;2.53;;
21315;SDS011;10817;55.820;13.030;2023-08-08T05:34:41;18.27;;;2.65;;
21315;SDS011;10817;55.820;13.030;2023-08-08T05:37:08;15.25;;;2.15;;
21315;SDS011;10817;55.820;13.030;2023-08-08T05:39:35;13.80;;;3.33;;
21315;SDS011;10817;55.820;13.030;2023-08-08T05:42:03;7.93;;;2.25;;
21315;SDS011;10817;55.820;13.030;2023-08-08T05:44:31;15.90;;;2.85;;
21315;SDS011;10817;55.820;13.030;2023-08-08T05:46:58;8.77;;;2.20;;
21315;SDS011;10817;55.820;13.030;2023-08-08T05:49:25;18.35;;;3.03;;
21315;SDS011;10817;55.820;13.030;2023-08-08T05:51:53;15.30;;;3.15;;
21315;SDS011;10817;55.820;13.030;2023-08-08T05:54:20;14.30;;;2.63;;
21315;SDS011;10817;55.820;13.030;2023-08-08T05:56:47;10.95;;;2.13;;
21315;SDS011;10817;55.820;13.030;2023-08-08T05:59:14;6.95;;;2.13;;
21315;SDS011;10817;55.820;13.030;2023-08-08T06:01:42;17.35;;;3.13;;
21315;SDS011;10817;55.820;13.030;2023-08-08T06:04:10;17.15;;;2.88;;
21315;SDS011;10817;55.820;13.030;2023-08-08T06:06:37;20.55;;;2.88;;
21315;SDS011;10817;55.820;13.030;2023-08-08T06:09:04;18.48;;;2.80;;
21315;SDS011;10817;55.820;13.030;2023-08-08T06:11:33;13.52;;;2.50;;
21315;SDS011;10817;55.820;13.030;2023-08-08T06:14:00;17.50;;;2.13;;
21315;SDS011;10817;55.820;13.030;2023-08-08T06:16:28;23.20;;;3.20;;
21315;SDS011;10817;55.820;13.030;2023-08-08T06:18:56;11.20;;;2.60;;
21315;SDS011;10817;55.820;13.030;2023-08-08T06:21:23;18.30;;;3.10;;
21315;SDS011;10817;55.820;13.030;2023-08-08T06:23:51;18.08;;;2.88;;
21315;SDS011;10817;55.820;13.030;2023-08-08T06:26:19;17.27;;;3.03;;
21315;SDS011;10817;55.820;13.030;2023-08-08T06:28:47;18.67;;;2.80;;
21315;SDS011;10817;55.820;13.030;2023-08-08T06:31:14;14.70;;;2.85;;
21315;SDS011;10817;55.820;13.030;2023-08-08T06:33:41;16.92;;;2.47;;
21315;SDS011;10817;55.820;13.030;2023-08-08T06:36:10;15.45;;;3.15;;
21315;SDS011;10817;55.820;13.030;2023-08-08T06:38:37;14.35;;;2.30;;
21315;SDS011;10817;55.820;13.030;2023-08-08T06:41:04;12.18;;;2.67;;
21315;SDS011;10817;55.820;13.030;2023-08-08T06:43:31;16.95;;;2.75;;
21315;SDS011;10817;55.820;13.030;2023-08-08T06:45:58;19.35;;;2.92;;
21315;SDS011;10817;55.820;13.030;2023-08-08T06:48:26;17.25;;;2.53;;
21315;SDS011;10817;55.820;13.030;2023-08-08T06:50:53;19.40;;;2.47;;
21315;SDS011;10817;55.820;13.030;2023-08-08T06:53:22;12.98;;;2.97;;
21315;SDS011;10817;55.820;13.030;2023-08-08T06:55:50;17.50;;;2.63;;
21315;SDS011;10817;55.820;13.030;2023-08-08T06:58:17;18.45;;;2.90;;
21315;SDS011;10817;55.820;13.030;2023-08-08T07:00:44;12.90;;;3.00;;
21315;SDS011;10817;55.820;13.030;2023-08-08T07:03:11;10.57;;;2.10;;
21315;SDS011;10817;55.820;13.030;2023-08-08T07:05:38;21.17;;;2.67;;
21315;SDS011;10817;55.820;13.030;2023-08-08T07:08:05;11.50;;;2.63;;
21315;SDS011;10817;55.820;13.030;2023-08-08T07:10:35;28.63;;;3.40;;
21315;SDS011;10817;55.820;13.030;2023-08-08T07:13:02;24.00;;;3.53;;
21315;SDS011;10817;55.820;13.030;2023-08-08T07:15:29;12.00;;;2.08;;
21315;SDS011;10817;55.820;13.030;2023-08-08T07:17:57;12.23;;;2.50;;
21315;SDS011;10817;55.820;13.030;2023-08-08T07:20:24;16.83;;;2.60;;
21315;SDS011;10817;55.820;13.030;2023-08-08T07:22:51;18.13;;;3.05;;
21315;SDS011;10817;55.820;13.030;2023-08-08T07:25:18;13.55;;;2.65;;
21315;SDS011;10817;55.820;13.030;2023-08-08T07:27:46;11.45;;;2.83;;
21315;SDS011;10817;55.820;13.030;2023-08-08T07:30:14;14.25;;;3.20;;
21315;SDS011;10817;55.820;13.030;2023-08-08T07:32:41;16.15;;;2.28;;
21315;SDS011;10817;55.820;13.030;2023-08-08T07:35:08;14.70;;;2.55;;
21315;SDS011;10817;55.820;13.030;2023-08-08T07:37:35;16.33;;;2.40;;
21315;SDS011;10817;55.820;13.030;2023-08-08T07:40:03;15.27;;;2.30;;
21315;SDS011;10817;55.820;13.030;2023-08-08T07:42:39;13.80;;;2.80;;
21315;SDS011;10817;55.820;13.030;2023-08-08T07:45:08;12.52;;;2.33;;
21315;SDS011;10817;55.820;13.030;2023-08-08T07:47:35;13.90;;;2.30;;
21315;SDS011;10817;55.820;13.030;2023-08-08T07:50:03;23.70;;;2.88;;
21315;SDS011;10817;55.820;13.030;2023-08-08T07:52:31;12.43;;;2.13;;
21315;SDS011;10817;55.820;13.030;2023-08-08T07:54:59;18.73;;;2.35;;
21315;SDS011;10817;55.820;13.030;2023-08-08T07:59:53;17.83;;;2.60;;
21315;SDS011;10817;55.820;13.030;2023-08-08T08:02:21;16.88;;;2.17;;
21315;SDS011;10817;55.820;13.030;2023-08-08T08:04:48;14.73;;;2.70;;
21315;SDS011;10817;55.820;13.030;2023-08-08T08:07:16;11.02;;;2.40;;
21315;SDS011;10817;55.820;13.030;2023-08-08T08:09:43;10.60;;;2.28;;
21315;SDS011;10817;55.820;13.030;2023-08-08T08:12:10;18.73;;;2.42;;
21315;SDS011;10817;55.820;13.030;2023-08-08T08:14:37;13.68;;;2.15;;
21315;SDS011;10817;55.820;13.030;2023-08-08T08:17:04;13.32;;;2.45;;
21315;SDS011;10817;55.820;13.030;2023-08-08T08:19:33;13.85;;;2.42;;
21315;SDS011;10817;55.820;13.030;2023-08-08T08:22:01;15.73;;;2.53;;
21315;SDS011;10817;55.820;13.030;2023-08-08T08:24:28;11.32;;;2.42;;
21315;SDS011;10817;55.820;13.030;2023-08-08T08:26:55;14.60;;;2.35;;
21315;SDS011;10817;55.820;13.030;2023-08-08T08:29:22;17.38;;;2.88;;
21315;SDS011;10817;55.820;13.030;2023-08-08T08:31:49;14.18;;;2.50;;
21315;SDS011;10817;55.820;13.030;2023-08-08T08:34:16;12.73;;;2.75;;
21315;SDS011;10817;55.820;13.030;2023-08-08T08:36:45;19.52;;;2.53;;
21315;SDS011;10817;55.820;13.030;2023-08-08T08:39:12;12.88;;;2.65;;
21315;SDS011;10817;55.820;13.030;2023-08-08T08:41:40;19.42;;;3.33;;
21315;SDS011;10817;55.820;13.030;2023-08-08T08:44:07;11.48;;;2.47;;
21315;SDS011;10817;55.820;13.030;2023-08-08T08:46:34;14.10;;;1.95;;
21315;SDS011;10817;55.820;13.030;2023-08-08T08:49:03;15.40;;;2.20;;
21315;SDS011;10817;55.820;13.030;2023-08-08T08:51:33;11.07;;;2.33;;
21315;SDS011;10817;55.820;13.030;2023-08-08T08:54:03;11.65;;;2.30;;
21315;SDS011;10817;55.820;13.030;2023-08-08T08:56:30;15.65;;;1.85;;
21315;SDS011;10817;55.820;13.030;2023-08-08T08:58:57;17.27;;;2.17;;
21315;SDS011;10817;55.820;13.030;2023-08-08T09:01:25;15.25;;;2.00;;
21315;SDS011;10817;55.820;13.030;2023-08-08T09:03:53;12.57;;;2.60;;
21315;SDS011;10817;55.820;13.030;2023-08-08T09:06:20;14.27;;;2.25;;
21315;SDS011;10817;55.820;13.030;2023-08-08T09:08:48;11.73;;;2.20;;
21315;SDS011;10817;55.820;13.030;2023-08-08T09:11:16;11.85;;;2.53;;
21315;SDS011;10817;55.820;13.030;2023-08-08T09:13:44;10.77;;;2.70;;
21315;SDS011;10817;55.820;13.030;2023-08-08T09:16:11;9.43;;;2.17;;
21315;SDS011;10817;55.820;13.030;2023-08-08T09:18:38;12.27;;;2.35;;
21315;SDS011;10817;55.820;13.030;2023-08-08T09:21:07;15.77;;;2.40;;
21315;SDS011;10817;55.820;13.030;2023-08-08T09:23:36;12.00;;;2.00;;
21315;SDS011;10817;55.820;13.030;2023-08-08T09:26:04;13.85;;;2.20;;
21315;SDS011;10817;55.820;13.030;2023-08-08T09:28:33;18.23;;;2.58;;
21315;SDS011;10817;55.820;13.030;2023-08-08T09:31:01;9.15;;;2.00;;
21315;SDS011;10817;55.820;13.030;2023-08-08T09:33:28;11.95;;;2.22;;
21315;SDS011;10817;55.820;13.030;2023-08-08T09:35:55;8.98;;;2.03;;
21315;SDS011;10817;55.820;13.030;2023-08-08T09:38:23;9.60;;;1.80;;
21315;SDS011;10817;55.820;13.030;2023-08-08T09:40:50;12.00;;;1.50;;
21315;SDS011;10817;55.820;13.030;2023-08-08T09:43:17;16.23;;;2.15;;
21315;SDS011;10817;55.820;13.030;2023-08-08T09:45:46;9.95;;;2.25;;
21315;SDS011;10817;55.820;13.030;2023-08-08T09:48:14;13.23;;;2.70;;
21315;SDS011;10817;55.820;13.030;2023-08-08T09:50:42;10.00;;;2.10;;
21315;SDS011;10817;55.820;13.030;2023-08-08T09:53:10;13.55;;;2.40;;
21315;SDS011;10817;55.820;13.030;2023-08-08T09:55:38;10.07;;;2.03;;
21315;SDS011;10817;55.820;13.030;2023-08-08T09:58:06;9.00;;;2.40;;
21315;SDS011;10817;55.820;13.030;2023-08-08T10:00:33;9.20;;;2.25;;
21315;SDS011;10817;55.820;13.030;2023-08-08T10:03:02;14.70;;;2.88;;
21315;SDS011;10817;55.820;13.030;2023-08-08T10:05:30;9.35;;;2.15;;
21315;SDS011;10817;55.820;13.030;2023-08-08T10:07:57;9.38;;;2.15;;
21315;SDS011;10817;55.820;13.030;2023-08-08T10:10:24;8.77;;;1.98;;
21315;SDS011;10817;55.820;13.030;2023-08-08T10:12:51;16.38;;;2.40;;
21315;SDS011;10817;55.820;13.030;2023-08-08T10:15:19;13.70;;;1.95;;
21315;SDS011;10817;55.820;13.030;2023-08-08T10:17:46;9.52;;;2.03;;
21315;SDS011;10817;55.820;13.030;2023-08-08T10:20:14;10.77;;;2.35;;
21315;SDS011;10817;55.820;13.030;2023-08-08T10:22:46;14.70;;;2.22;;
21315;SDS011;10817;55.820;13.030;2023-08-08T10:25:17;10.90;;;2.42;;
21315;SDS011;10817;55.820;13.030;2023-08-08T10:27:45;11.95;;;2.20;;
21315;SDS011;10817;55.820;13.030;2023-08-08T10:30:12;12.75;;;2.15;;
21315;SDS011;10817;55.820;13.030;2023-08-08T10:32:41;12.07;;;2.38;;
21315;SDS011;10817;55.820;13.030;2023-08-08T10:35:09;8.73;;;1.98;;
21315;SDS011;10817;55.820;13.030;2023-08-08T10:37:38;14.75;;;2.20;;
21315;SDS011;10817;55.820;13.030;2023-08-08T10:40:06;8.30;;;1.85;;
21315;SDS011;10817;55.820;13.030;2023-08-08T10:42:43;12.25;;;2.00;;
21315;SDS011;10817;55.820;13.030;2023-08-08T10:45:11;17.13;;;2.30;;
21315;SDS011;10817;55.820;13.030;2023-08-08T10:47:38;8.73;;;2.03;;
21315;SDS011;10817;55.820;13.030;2023-08-08T10:50:07;8.07;;;1.67;;
21315;SDS011;10817;55.820;13.030;2023-08-08T10:52:49;13.68;;;2.45;;
21315;SDS011;10817;55.820;13.030;2023-08-08T10:55:20;10.55;;;2.03;;
21315;SDS011;10817;55.820;13.030;2023-08-08T10:57:57;11.32;;;2.40;;
21315;SDS011;10817;55.820;13.030;2023-08-08T11:00:26;14.05;;;2.15;;
21315;SDS011;10817;55.820;13.030;2023-08-08T11:02:53;8.20;;;2.22;;
21315;SDS011;10817;55.820;13.030;2023-08-08T11:05:21;7.60;;;1.80;;
21315;SDS011;10817;55.820;13.030;2023-08-08T11:07:50;14.40;;;2.42;;
21315;SDS011;10817;55.820;13.030;2023-08-08T11:10:17;7.85;;;1.55;;
21315;SDS011;10817;55.820;13.030;2023-08-08T11:12:53;11.80;;;2.22;;
21315;SDS011;10817;55.820;13.030;2023-08-08T11:15:20;12.68;;;2.00;;
21315;SDS011;10817;55.820;13.030;2023-08-08T11:17:48;11.55;;;1.88;;
21315;SDS011;10817;55.820;13.030;2023-08-08T11:20:17;9.88;;;1.98;;
21315;SDS011;10817;55.820;13.030;2023-08-08T11:22:44;12.32;;;1.88;;
21315;SDS011;10817;55.820;13.030;2023-08-08T11:25:15;9.75;;;1.65;;
21315;SDS011;10817;55.820;13.030;2023-08-08T11:27:48;6.75;;;1.80;;
21315;SDS011;10817;55.820;13.030;2023-08-08T11:30:15;10.65;;;2.15;;
21315;SDS011;10817;55.820;13.030;2023-08-08T11:32:42;9.43;;;2.10;;
21315;SDS011;10817;55.820;13.030;2023-08-08T11:35:10;8.65;;;2.00;;
21315;SDS011;10817;55.820;13.030;2023-08-08T11:37:37;8.18;;;1.90;;
21315;SDS011;10817;55.820;13.030;2023-08-08T11:40:05;13.90;;;2.17;;
21315;SDS011;10817;55.820;13.030;2023-08-08T11:42:35;10.10;;;2.58;;
21315;SDS011;10817;55.820;13.030;2023-08-08T11:45:02;16.58;;;2.80;;
21315;SDS011;10817;55.820;13.030;2023-08-08T11:47:29;11.23;;;1.92;;
21315;SDS011;10817;55.820;13.030;2023-08-08T11:50:01;7.00;;;1.73;;
21315;SDS011;10817;55.820;13.030;2023-08-08T11:52:28;10.63;;;1.92;;
21315;SDS011;10817;55.820;13.030;2023-08-08T11:54:58;10.38;;;1.88;;
21315;SDS011;10817;55.820;13.030;2023-08-08T11:57:26;8.05;;;2.05;;
21315;SDS011;10817;55.820;13.030;2023-08-08T11:59:54;13.02;;;2.15;;
21315;SDS011;10817;55.820;13.030;2023-08-08T12:02:22;13.77;;;1.90;;
21315;SDS011;10817;55.820;13.030;2023-08-08T12:04:49;10.68;;;2.55;;
21315;SDS011;10817;55.820;13.030;2023-08-08T12:07:16;16.30;;;2.15;;
21315;SDS011;10817;55.820;13.030;2023-08-08T12:09:46;10.13;;;1.88;;
21315;SDS011;10817;55.820;13.030;2023-08-08T12:12:13;11.65;;;1.92;;
21315;SDS011;10817;55.820;13.030;2023-08-08T12:14:41;8.93;;;1.50;;
21315;SDS011;10817;55.820;13.030;2023-08-08T12:17:10;13.10;;;1.85;;
21315;SDS011;10817;55.820;13.030;2023-08-08T12:19:37;15.02;;;2.67;;
21315;SDS011;10817;55.820;13.030;2023-08-08T12:22:12;8.93;;;1.98;;
21315;SDS011;10817;55.820;13.030;2023-08-08T12:24:39;9.18;;;1.95;;
21315;SDS011;10817;55.820;13.030;2023-08-08T12:27:06;9.77;;;1.50;;
21315;SDS011;10817;55.820;13.030;2023-08-08T12:29:33;9.18;;;2.20;;
21315;SDS011;10817;55.820;13.030;2023-08-08T12:32:00;10.52;;;2.05;;
21315;SDS011;10817;55.820;13.030;2023-08-08T12:34:34;6.57;;;2.15;;
21315;SDS011;10817;55.820;13.030;2023-08-08T12:37:01;5.32;;;1.42;;
21315;SDS011;10817;55.820;13.030;2023-08-08T12:39:28;11.70;;;1.98;;
21315;SDS011;10817;55.820;13.030;2023-08-08T12:41:56;8.38;;;1.70;;
21315;SDS011;10817;55.820;13.030;2023-08-08T12:44:23;4.90;;;1.75;;
21315;SDS011;10817;55.820;13.030;2023-08-08T12:46:50;6.97;;;1.73;;
21315;SDS011;10817;55.820;13.030;2023-08-08T12:49:17;7.47;;;1.48;;
21315;SDS011;10817;55.820;13.030;2023-08-08T12:51:45;9.55;;;2.60;;
21315;SDS011;10817;55.820;13.030;2023-08-08T12:54:13;14.10;;;1.58;;
21315;SDS011;10817;55.820;13.030;2023-08-08T12:56:40;9.45;;;1.95;;
21315;SDS011;10817;55.820;13.030;2023-08-08T12:59:08;8.40;;;1.38;;
21315;SDS011;10817;55.820;13.030;2023-08-08T13:01:35;6.45;;;1.48;;
21315;SDS011;10817;55.820;13.030;2023-08-08T13:04:03;6.28;;;1.55;;
21315;SDS011;10817;55.820;13.030;2023-08-08T13:06:30;8.52;;;1.63;;
21315;SDS011;10817;55.820;13.030;2023-08-08T13:08:59;6.38;;;1.73;;
21315;SDS011;10817;55.820;13.030;2023-08-08T13:11:27;8.57;;;1.98;;
21315;SDS011;10817;55.820;13.030;2023-08-08T13:13:54;4.80;;;1.40;;
21315;SDS011;10817;55.820;13.030;2023-08-08T13:16:21;9.63;;;1.40;;
21315;SDS011;10817;55.820;13.030;2023-08-08T13:18:48;8.93;;;1.40;;
21315;SDS011;10817;55.820;13.030;2023-08-08T13:21:15;3.58;;;1.23;;
21315;SDS011;10817;55.820;13.030;2023-08-08T13:23:43;7.90;;;1.95;;
21315;SDS011;10817;55.820;13.030;2023-08-08T13:26:12;7.15;;;1.60;;
21315;SDS011;10817;55.820;13.030;2023-08-08T13:28:39;7.80;;;1.30;;
21315;SDS011;10817;55.820;13.030;2023-08-08T13:31:06;9.45;;;1.63;;
21315;SDS011;10817;55.820;13.030;2023-08-08T13:33:33;8.23;;;1.65;;
21315;SDS011;10817;55.820;13.030;2023-08-08T13:36:01;12.32;;;1.85;;
21315;SDS011;10817;55.820;13.030;2023-08-08T13:38:28;8.77;;;1.15;;
21315;SDS011;10817;55.820;13.030;2023-08-08T13:40:55;8.52;;;1.52;;
21315;SDS011;10817;55.820;13.030;2023-08-08T13:43:23;6.13;;;1.85;;
21315;SDS011;10817;55.820;13.030;2023-08-08T13:45:51;6.45;;;1.45;;
21315;SDS011;10817;55.820;13.030;2023-08-08T13:48:18;9.75;;;1.58;;
21315;SDS011;10817;55.820;13.030;2023-08-08T13:50:45;11.18;;;2.15;;
21315;SDS011;10817;55.820;13.030;2023-08-08T13:53:12;8.68;;;1.45;;
21315;SDS011;10817;55.820;13.030;2023-08-08T13:55:39;10.32;;;1.50;;
21315;SDS011;10817;55.820;13.030;2023-08-08T13:58:07;4.40;;;1.33;;
21315;SDS011;10817;55.820;13.030;2023-08-08T14:00:36;12.88;;;1.38;;
21315;SDS011;10817;55.820;13.030;2023-08-08T14:03:04;7.80;;;1.40;;
21315;SDS011;10817;55.820;13.030;2023-08-08T14:05:32;6.70;;;1.27;;
21315;SDS011;10817;55.820;13.030;2023-08-08T14:07:59;9.50;;;2.03;;
21315;SDS011;10817;55.820;13.030;2023-08-08T14:10:26;5.25;;;1.65;;
21315;SDS011;10817;55.820;13.030;2023-08-08T14:12:53;12.90;;;1.65;;
21315;SDS011;10817;55.820;13.030;2023-08-08T14:15:20;5.20;;;1.50;;
21315;SDS011;10817;55.820;13.030;2023-08-08T14:17:49;5.50;;;1.40;;
21315;SDS011;10817;55.820;13.030;2023-08-08T14:20:16;5.65;;;1.33;;
21315;SDS011;10817;55.820;13.030;2023-08-08T14:22:44;4.68;;;1.50;;
21315;SDS011;10817;55.820;13.030;2023-08-08T14:25:11;10.10;;;1.70;;
21315;SDS011;10817;55.820;13.030;2023-08-08T14:27:38;6.05;;;1.52;;
21315;SDS011;10817;55.820;13.030;2023-08-08T14:30:06;5.93;;;1.35;;
21315;SDS011;10817;55.820;13.030;2023-08-08T14:32:33;7.50;;;2.03;;